If you wish to contribute or participate in the discussions about articles you are invited to join SKYbrary as a registered user

 Actions

Atka Airport

From SKYbrary Wiki

PAAK
Airport
ICAO: PAAK – IATA: AKB
Summary
Name Atka Airport
Region North America
Territory Alaska US.gif
Location , Alaska
Serving Atka
Elevation 17.374 m
57 ft
57 ft17.374 m
Type small airport
Coordinates 52° 13' 13.00" N, 174° 12' 23.00" W
Runways
Designator Length Width Surface ROPS
16/34 1372 m4,501.312 ft
30 m98.425 ft
ASPH-E /


METAR
Observation PAAK 151514Z AUTO 29011KT 10SM -RA BKN013 OVC100 11/09 A3006 RMK AO2 RAB04 PRESRR PNO $
Station Atka, Atka Airport
Date/Time 15 September 2019 15:14:00
Wind direction 290°
Wind speed 11 kts
Lowest cloud amount broken clouds
Temperature 11°C
Dew point 9°C
Humidity 87%
QNH hPa
Weather condition light rain